sensor_id;sensor_type;location;lat;lon;timestamp;pressure;altitude;pressure_sealevel;temperature;humidity
29467;BME280;60968;37.490;-122.288;2023-05-25T00:00:44;98314.44;;;18.00;66.23
29467;BME280;60968;37.490;-122.288;2023-05-25T00:03:45;98313.53;;;17.84;66.91
29467;BME280;60968;37.490;-122.288;2023-05-25T00:06:46;98313.88;;;17.78;66.84
29467;BME280;60968;37.490;-122.288;2023-05-25T00:09:47;98307.53;;;17.82;66.97
29467;BME280;60968;37.490;-122.288;2023-05-25T00:12:48;98312.34;;;17.74;67.63
29467;BME280;60968;37.490;-122.288;2023-05-25T00:15:49;98305.56;;;17.70;68.19
29467;BME280;60968;37.490;-122.288;2023-05-25T00:18:50;98311.47;;;17.73;67.81
29467;BME280;60968;37.490;-122.288;2023-05-25T00:21:51;98295.69;;;17.57;68.10
29467;BME280;60968;37.490;-122.288;2023-05-25T00:24:51;98306.22;;;17.57;68.16
29467;BME280;60968;37.490;-122.288;2023-05-25T00:27:52;98307.00;;;17.26;69.03
29467;BME280;60968;37.490;-122.288;2023-05-25T00:30:53;98303.50;;;17.25;70.26
29467;BME280;60968;37.490;-122.288;2023-05-25T00:33:54;98304.69;;;17.20;70.50
29467;BME280;60968;37.490;-122.288;2023-05-25T00:36:55;98298.09;;;17.28;70.37
29467;BME280;60968;37.490;-122.288;2023-05-25T00:39:56;98293.16;;;17.22;70.75
29467;BME280;60968;37.490;-122.288;2023-05-25T00:42:58;98294.25;;;16.83;71.92
29467;BME280;60968;37.490;-122.288;2023-05-25T00:45:59;98297.13;;;16.78;73.32
29467;BME280;60968;37.490;-122.288;2023-05-25T00:49:01;98299.19;;;16.72;73.74
29467;BME280;60968;37.490;-122.288;2023-05-25T00:52:02;98302.06;;;16.67;74.34
29467;BME280;60968;37.490;-122.288;2023-05-25T00:55:06;98294.56;;;16.77;73.81
29467;BME280;60968;37.490;-122.288;2023-05-25T00:58:09;98296.44;;;16.40;75.19
29467;BME280;60968;37.490;-122.288;2023-05-25T01:01:14;98293.84;;;16.21;75.94
29467;BME280;60968;37.490;-122.288;2023-05-25T01:04:16;98303.75;;;15.97;77.42
29467;BME280;60968;37.490;-122.288;2023-05-25T01:07:22;98304.03;;;15.71;78.78
29467;BME280;60968;37.490;-122.288;2023-05-25T01:10:24;98304.59;;;15.59;79.77
29467;BME280;60968;37.490;-122.288;2023-05-25T01:13:26;98305.13;;;15.47;80.52
29467;BME280;60968;37.490;-122.288;2023-05-25T01:16:28;98297.94;;;15.31;81.59
29467;BME280;60968;37.490;-122.288;2023-05-25T01:19:29;98296.75;;;15.38;81.92
29467;BME280;60968;37.490;-122.288;2023-05-25T01:22:42;98295.53;;;15.26;83.12
29467;BME280;60968;37.490;-122.288;2023-05-25T01:25:50;98307.59;;;15.31;82.46
29467;BME280;60968;37.490;-122.288;2023-05-25T01:28:54;98302.72;;;15.02;84.29
29467;BME280;60968;37.490;-122.288;2023-05-25T01:31:57;98306.03;;;14.87;84.84
29467;BME280;60968;37.490;-122.288;2023-05-25T01:34:59;98315.97;;;14.79;86.68
29467;BME280;60968;37.490;-122.288;2023-05-25T01:38:00;98307.41;;;14.53;87.83
29467;BME280;60968;37.490;-122.288;2023-05-25T01:41:01;98314.34;;;14.54;88.17
29467;BME280;60968;37.490;-122.288;2023-05-25T01:44:03;98314.63;;;14.26;90.04
29467;BME280;60968;37.490;-122.288;2023-05-25T01:47:16;98313.63;;;14.06;90.99
29467;BME280;60968;37.490;-122.288;2023-05-25T01:53:44;98311.06;;;13.82;92.96
29467;BME280;60968;37.490;-122.288;2023-05-25T01:56:46;98309.78;;;13.70;94.04
29467;BME280;60968;37.490;-122.288;2023-05-25T01:59:48;98309.34;;;13.59;95.02
29467;BME280;60968;37.490;-122.288;2023-05-25T02:02:51;98310.28;;;13.57;96.00
29467;BME280;60968;37.490;-122.288;2023-05-25T02:05:53;98304.44;;;13.50;96.36
29467;BME280;60968;37.490;-122.288;2023-05-25T02:08:54;98303.06;;;13.40;97.48
29467;BME280;60968;37.490;-122.288;2023-05-25T02:11:55;98300.22;;;13.22;98.45
29467;BME280;60968;37.490;-122.288;2023-05-25T02:14:56;98306.50;;;13.16;99.13
29467;BME280;60968;37.490;-122.288;2023-05-25T02:17:57;98295.66;;;13.02;100.00
29467;BME280;60968;37.490;-122.288;2023-05-25T02:20:58;98309.84;;;12.69;100.00
29467;BME280;60968;37.490;-122.288;2023-05-25T02:23:59;98321.78;;;12.51;100.00
29467;BME280;60968;37.490;-122.288;2023-05-25T02:27:00;98320.97;;;12.23;100.00
29467;BME280;60968;37.490;-122.288;2023-05-25T02:30:01;98324.88;;;12.09;100.00
29467;BME280;60968;37.490;-122.288;2023-05-25T02:33:02;98331.09;;;12.05;100.00
29467;BME280;60968;37.490;-122.288;2023-05-25T02:36:03;98337.34;;;12.01;100.00
29467;BME280;60968;37.490;-122.288;2023-05-25T02:39:04;98332.50;;;11.87;100.00
29467;BME280;60968;37.490;-122.288;2023-05-25T02:42:05;98332.56;;;11.84;100.00
29467;BME280;60968;37.490;-122.288;2023-05-25T02:45:08;98336.00;;;11.86;100.00
29467;BME280;60968;37.490;-122.288;2023-05-25T02:48:09;98339.22;;;11.66;100.00
29467;BME280;60968;37.490;-122.288;2023-05-25T02:51:10;98336.50;;;11.69;100.00
29467;BME280;60968;37.490;-122.288;2023-05-25T02:54:11;98341.09;;;11.61;100.00
29467;BME280;60968;37.490;-122.288;2023-05-25T02:57:12;98339.13;;;11.69;100.00
29467;BME280;60968;37.490;-122.288;2023-05-25T03:00:13;98339.88;;;11.73;100.00
29467;BME280;60968;37.490;-122.288;2023-05-25T03:03:14;98353.53;;;11.51;100.00
29467;BME280;60968;37.490;-122.288;2023-05-25T03:06:15;98352.84;;;11.44;100.00
29467;BME280;60968;37.490;-122.288;2023-05-25T03:09:16;98361.63;;;11.42;100.00
29467;BME280;60968;37.490;-122.288;2023-05-25T03:12:17;98364.19;;;11.43;100.00
29467;BME280;60968;37.490;-122.288;2023-05-25T03:15:17;98360.59;;;11.47;100.00
29467;BME280;60968;37.490;-122.288;2023-05-25T03:18:18;98364.41;;;11.36;100.00
29467;BME280;60968;37.490;-122.288;2023-05-25T03:21:19;98359.31;;;11.31;100.00
29467;BME280;60968;37.490;-122.288;2023-05-25T03:24:20;98359.44;;;11.26;100.00
29467;BME280;60968;37.490;-122.288;2023-05-25T03:27:21;98369.56;;;11.06;100.00
29467;BME280;60968;37.490;-122.288;2023-05-25T03:30:22;98364.56;;;10.96;100.00
29467;BME280;60968;37.490;-122.288;2023-05-25T03:33:23;98372.25;;;11.03;100.00
29467;BME280;60968;37.490;-122.288;2023-05-25T03:36:24;98377.75;;;10.92;100.00
29467;BME280;60968;37.490;-122.288;2023-05-25T03:39:25;98372.41;;;10.96;100.00
29467;BME280;60968;37.490;-122.288;2023-05-25T03:42:26;98374.16;;;10.96;100.00
29467;BME280;60968;37.490;-122.288;2023-05-25T03:45:27;98378.63;;;10.91;100.00
29467;BME280;60968;37.490;-122.288;2023-05-25T03:48:28;98377.13;;;10.82;100.00
29467;BME280;60968;37.490;-122.288;2023-05-25T03:51:29;98385.59;;;10.90;100.00
29467;BME280;60968;37.490;-122.288;2023-05-25T03:54:30;98388.06;;;10.95;100.00
29467;BME280;60968;37.490;-122.288;2023-05-25T03:57:31;98398.72;;;10.86;100.00
29467;BME280;60968;37.490;-122.288;2023-05-25T04:00:32;98404.69;;;10.91;100.00
29467;BME280;60968;37.490;-122.288;2023-05-25T04:03:32;98406.53;;;10.87;100.00
29467;BME280;60968;37.490;-122.288;2023-05-25T04:06:33;98402.25;;;10.85;100.00
29467;BME280;60968;37.490;-122.288;2023-05-25T04:09:34;98404.97;;;10.78;100.00
29467;BME280;60968;37.490;-122.288;2023-05-25T04:12:35;98406.47;;;10.53;100.00
29467;BME280;60968;37.490;-122.288;2023-05-25T04:15:36;98407.19;;;10.59;100.00
29467;BME280;60968;37.490;-122.288;2023-05-25T04:18:37;98403.75;;;10.57;100.00
29467;BME280;60968;37.490;-122.288;2023-05-25T04:21:38;98414.38;;;10.50;100.00
29467;BME280;60968;37.490;-122.288;2023-05-25T04:24:39;98410.09;;;10.47;100.00
29467;BME280;60968;37.490;-122.288;2023-05-25T04:27:40;98409.97;;;10.52;100.00
29467;BME280;60968;37.490;-122.288;2023-05-25T04:30:41;98411.22;;;10.34;100.00
29467;BME280;60968;37.490;-122.288;2023-05-25T04:33:43;98413.75;;;10.38;100.00
29467;BME280;60968;37.490;-122.288;2023-05-25T04:36:44;98420.75;;;10.36;100.00
29467;BME280;60968;37.490;-122.288;2023-05-25T04:39:45;98426.00;;;10.33;100.00
29467;BME280;60968;37.490;-122.288;2023-05-25T04:42:46;98423.66;;;10.21;100.00
29467;BME280;60968;37.490;-122.288;2023-05-25T04:45:46;98417.75;;;10.12;100.00
29467;BME280;60968;37.490;-122.288;2023-05-25T04:48:47;98418.88;;;10.01;100.00
29467;BME280;60968;37.490;-122.288;2023-05-25T04:51:48;98418.75;;;10.07;100.00
29467;BME280;60968;37.490;-122.288;2023-05-25T04:54:49;98417.72;;;10.16;100.00
29467;BME280;60968;37.490;-122.288;2023-05-25T04:57:50;98426.28;;;10.19;100.00
29467;BME280;60968;37.490;-122.288;2023-05-25T05:00:52;98431.47;;;10.21;100.00
29467;BME280;60968;37.490;-122.288;2023-05-25T05:03:53;98430.69;;;10.17;100.00
29467;BME280;60968;37.490;-122.288;2023-05-25T05:06:54;98420.47;;;10.08;100.00
29467;BME280;60968;37.490;-122.288;2023-05-25T05:09:54;98422.41;;;9.98;100.00
29467;BME280;60968;37.490;-122.288;2023-05-25T05:12:55;98419.13;;;9.88;100.00
29467;BME280;60968;37.490;-122.288;2023-05-25T05:15:56;98428.63;;;9.91;100.00
29467;BME280;60968;37.490;-122.288;2023-05-25T05:18:57;98427.91;;;9.84;100.00
29467;BME280;60968;37.490;-122.288;2023-05-25T05:21:58;98436.47;;;9.89;100.00
29467;BME280;60968;37.490;-122.288;2023-05-25T05:24:59;98441.75;;;9.86;100.00
29467;BME280;60968;37.490;-122.288;2023-05-25T05:28:00;98427.88;;;9.87;100.00
29467;BME280;60968;37.490;-122.288;2023-05-25T05:31:01;98431.19;;;9.92;100.00
29467;BME280;60968;37.490;-122.288;2023-05-25T05:34:02;98432.13;;;9.90;100.00
29467;BME280;60968;37.490;-122.288;2023-05-25T05:37:03;98437.44;;;9.85;100.00
29467;BME280;60968;37.490;-122.288;2023-05-25T05:40:04;98433.19;;;9.79;100.00
29467;BME280;60968;37.490;-122.288;2023-05-25T05:43:05;98439.25;;;9.80;100.00
29467;BME280;60968;37.490;-122.288;2023-05-25T05:46:06;98429.81;;;9.74;100.00
29467;BME280;60968;37.490;-122.288;2023-05-25T05:49:07;98431.75;;;9.66;100.00
29467;BME280;60968;37.490;-122.288;2023-05-25T05:52:08;98432.63;;;9.65;100.00
29467;BME280;60968;37.490;-122.288;2023-05-25T05:55:09;98433.47;;;9.66;100.00
29467;BME280;60968;37.490;-122.288;2023-05-25T05:58:10;98432.69;;;9.62;100.00
29467;BME280;60968;37.490;-122.288;2023-05-25T06:01:10;98439.75;;;9.55;100.00
29467;BME280;60968;37.490;-122.288;2023-05-25T06:04:11;98449.22;;;9.59;100.00
29467;BME280;60968;37.490;-122.288;2023-05-25T06:07:12;98440.50;;;9.62;100.00
29467;BME280;60968;37.490;-122.288;2023-05-25T06:10:13;98444.88;;;9.58;100.00
29467;BME280;60968;37.490;-122.288;2023-05-25T06:13:14;98440.50;;;9.62;100.00
29467;BME280;60968;37.490;-122.288;2023-05-25T06:16:15;98438.78;;;9.61;100.00
29467;BME280;60968;37.490;-122.288;2023-05-25T06:19:16;98435.22;;;9.65;100.00
29467;BME280;60968;37.490;-122.288;2023-05-25T06:22:16;98437.03;;;9.61;100.00
29467;BME280;60968;37.490;-122.288;2023-05-25T06:25:17;98430.91;;;9.64;100.00
29467;BME280;60968;37.490;-122.288;2023-05-25T06:28:18;98432.78;;;9.56;100.00
29467;BME280;60968;37.490;-122.288;2023-05-25T06:31:19;98441.47;;;9.56;100.00
29467;BME280;60968;37.490;-122.288;2023-05-25T06:34:20;98438.66;;;9.67;100.00
29467;BME280;60968;37.490;-122.288;2023-05-25T06:37:21;98434.28;;;9.69;100.00
29467;BME280;60968;37.490;-122.288;2023-05-25T06:40:22;98440.88;;;9.86;100.00
29467;BME280;60968;37.490;-122.288;2023-05-25T06:43:22;98442.66;;;9.84;100.00
29467;BME280;60968;37.490;-122.288;2023-05-25T06:46:23;98436.84;;;9.71;100.00
29467;BME280;60968;37.490;-122.288;2023-05-25T06:49:24;98435.25;;;9.64;100.00
29467;BME280;60968;37.490;-122.288;2023-05-25T06:52:25;98440.47;;;9.64;100.00
29467;BME280;60968;37.490;-122.288;2023-05-25T06:55:26;98436.09;;;9.64;100.00
29467;BME280;60968;37.490;-122.288;2023-05-25T06:58:27;98440.50;;;9.60;100.00
29467;BME280;60968;37.490;-122.288;2023-05-25T07:01:28;98448.25;;;9.65;100.00
29467;BME280;60968;37.490;-122.288;2023-05-25T07:04:28;98447.34;;;9.66;100.00
29467;BME280;60968;37.490;-122.288;2023-05-25T07:07:29;98450.75;;;9.70;100.00
29467;BME280;60968;37.490;-122.288;2023-05-25T07:10:30;98449.91;;;9.69;100.00
29467;BME280;60968;37.490;-122.288;2023-05-25T07:13:31;98442.03;;;9.72;100.00
29467;BME280;60968;37.490;-122.288;2023-05-25T07:16:32;98444.47;;;9.80;100.00
29467;BME280;60968;37.490;-122.288;2023-05-25T07:19:33;98440.13;;;9.81;100.00
29467;BME280;60968;37.490;-122.288;2023-05-25T07:22:34;98439.19;;;9.85;100.00
29467;BME280;60968;37.490;-122.288;2023-05-25T07:25:35;98441.66;;;9.91;100.00
29467;BME280;60968;37.490;-122.288;2023-05-25T07:28:37;98436.41;;;9.92;100.00
29467;BME280;60968;37.490;-122.288;2023-05-25T07:31:37;98431.25;;;9.91;100.00
29467;BME280;60968;37.490;-122.288;2023-05-25T07:34:38;98427.88;;;9.86;100.00
29467;BME280;60968;37.490;-122.288;2023-05-25T07:37:39;98423.59;;;9.83;100.00
29467;BME280;60968;37.490;-122.288;2023-05-25T07:40:40;98416.88;;;9.71;100.00
29467;BME280;60968;37.490;-122.288;2023-05-25T07:43:41;98415.31;;;9.64;100.00
29467;BME280;60968;37.490;-122.288;2023-05-25T07:46:42;98416.22;;;9.61;100.00
29467;BME280;60968;37.490;-122.288;2023-05-25T07:49:43;98414.50;;;9.60;100.00
29467;BME280;60968;37.490;-122.288;2023-05-25T07:52:44;98409.28;;;9.62;100.00
29467;BME280;60968;37.490;-122.288;2023-05-25T07:55:44;98405.81;;;9.61;100.00
29467;BME280;60968;37.490;-122.288;2023-05-25T07:58:45;98404.09;;;9.60;100.00
29467;BME280;60968;37.490;-122.288;2023-05-25T08:01:46;98399.06;;;9.53;100.00
29467;BME280;60968;37.490;-122.288;2023-05-25T08:04:47;98400.88;;;9.48;100.00
29467;BME280;60968;37.490;-122.288;2023-05-25T08:07:48;98393.91;;;9.50;100.00
29467;BME280;60968;37.490;-122.288;2023-05-25T08:10:49;98387.88;;;9.48;100.00
29467;BME280;60968;37.490;-122.288;2023-05-25T08:13:49;98390.56;;;9.43;100.00
29467;BME280;60968;37.490;-122.288;2023-05-25T08:16:50;98388.06;;;9.38;100.00
29467;BME280;60968;37.490;-122.288;2023-05-25T08:19:52;98381.09;;;9.40;100.00
29467;BME280;60968;37.490;-122.288;2023-05-25T08:22:53;98377.59;;;9.41;100.00
29467;BME280;60968;37.490;-122.288;2023-05-25T08:25:54;98380.13;;;9.44;100.00
29467;BME280;60968;37.490;-122.288;2023-05-25T08:28:55;98382.94;;;9.35;100.00
29467;BME280;60968;37.490;-122.288;2023-05-25T08:31:56;98380.28;;;9.38;100.00
29467;BME280;60968;37.490;-122.288;2023-05-25T08:34:57;98376.75;;;9.39;100.00
29467;BME280;60968;37.490;-122.288;2023-05-25T08:37:58;98381.16;;;9.37;100.00
29467;BME280;60968;37.490;-122.288;2023-05-25T08:41:06;98376.00;;;9.34;100.00
29467;BME280;60968;37.490;-122.288;2023-05-25T08:44:06;98364.72;;;9.37;100.00
29467;BME280;60968;37.490;-122.288;2023-05-25T08:47:07;98376.03;;;9.33;100.00
29467;BME280;60968;37.490;-122.288;2023-05-25T08:50:11;98377.06;;;9.25;100.00
29467;BME280;60968;37.490;-122.288;2023-05-25T08:53:15;98370.03;;;9.29;100.00
29467;BME280;60968;37.490;-122.288;2023-05-25T08:56:18;98363.09;;;9.31;100.00
29467;BME280;60968;37.490;-122.288;2023-05-25T08:59:30;98361.28;;;9.33;100.00
29467;BME280;60968;37.490;-122.288;2023-05-25T09:06:18;98352.47;;;9.40;100.00
29467;BME280;60968;37.490;-122.288;2023-05-25T09:09:19;98350.69;;;9.44;100.00
29467;BME280;60968;37.490;-122.288;2023-05-25T09:12:21;98354.06;;;9.48;100.00
29467;BME280;60968;37.490;-122.288;2023-05-25T09:15:22;98353.94;;;9.55;100.00
29467;BME280;60968;37.490;-122.288;2023-05-25T09:18:23;98352.22;;;9.54;100.00
29467;BME280;60968;37.490;-122.288;2023-05-25T09:21:25;98347.94;;;9.50;100.00
29467;BME280;60968;37.490;-122.288;2023-05-25T09:24:26;98350.59;;;9.49;100.00
29467;BME280;60968;37.490;-122.288;2023-05-25T09:27:26;98351.47;;;9.48;100.00
29467;BME280;60968;37.490;-122.288;2023-05-25T09:30:27;98349.69;;;9.51;100.00
29467;BME280;60968;37.490;-122.288;2023-05-25T09:33:28;98352.38;;;9.47;100.00
29467;BME280;60968;37.490;-122.288;2023-05-25T09:36:29;98345.31;;;9.52;100.00
29467;BME280;60968;37.490;-122.288;2023-05-25T09:39:30;98342.78;;;9.49;100.00
29467;BME280;60968;37.490;-122.288;2023-05-25T09:42:32;98339.34;;;9.48;100.00
29467;BME280;60968;37.490;-122.288;2023-05-25T09:45:33;98337.56;;;9.50;100.00
29467;BME280;60968;37.490;-122.288;2023-05-25T09:48:34;98347.19;;;9.47;100.00
29467;BME280;60968;37.490;-122.288;2023-05-25T09:51:35;98342.03;;;9.42;100.00
29467;BME280;60968;37.490;-122.288;2023-05-25T09:54:36;98346.47;;;9.38;100.00
29467;BME280;60968;37.490;-122.288;2023-05-25T09:57:38;98352.63;;;9.34;100.00
29467;BME280;60968;37.490;-122.288;2023-05-25T10:00:39;98350.94;;;9.32;100.00
29467;BME280;60968;37.490;-122.288;2023-05-25T10:03:46;98352.81;;;9.23;100.00
29467;BME280;60968;37.490;-122.288;2023-05-25T10:06:47;98348.66;;;9.15;100.00
29467;BME280;60968;37.490;-122.288;2023-05-25T10:09:50;98349.56;;;9.12;100.00
29467;BME280;60968;37.490;-122.288;2023-05-25T10:12:52;98345.41;;;9.03;100.00
29467;BME280;60968;37.490;-122.288;2023-05-25T10:15:54;98348.81;;;9.05;100.00
29467;BME280;60968;37.490;-122.288;2023-05-25T10:25:53;98359.78;;;9.23;100.00
29467;BME280;60968;37.490;-122.288;2023-05-25T10:28:59;98347.59;;;9.25;100.00
29467;BME280;60968;37.490;-122.288;2023-05-25T10:32:00;98348.44;;;9.27;100.00
29467;BME280;60968;37.490;-122.288;2023-05-25T10:35:03;98342.31;;;9.28;100.00
29467;BME280;60968;37.490;-122.288;2023-05-25T10:38:04;98343.25;;;9.24;100.00
29467;BME280;60968;37.490;-122.288;2023-05-25T10:41:08;98338.06;;;9.25;100.00
29467;BME280;60968;37.490;-122.288;2023-05-25T10:44:09;98336.25;;;9.29;100.00
29467;BME280;60968;37.490;-122.288;2023-05-25T10:47:11;98336.22;;;9.31;100.00
29467;BME280;60968;37.490;-122.288;2023-05-25T10:50:22;98333.56;;;9.32;100.00
29467;BME280;60968;37.490;-122.288;2023-05-25T10:53:24;98337.06;;;9.33;100.00
29467;BME280;60968;37.490;-122.288;2023-05-25T10:56:27;98333.56;;;9.32;100.00
29467;BME280;60968;37.490;-122.288;2023-05-25T10:59:28;98327.59;;;9.29;100.00
29467;BME280;60968;37.490;-122.288;2023-05-25T11:02:29;98322.28;;;9.33;100.00
29467;BME280;60968;37.490;-122.288;2023-05-25T11:05:32;98322.09;;;9.44;100.00
29467;BME280;60968;37.490;-122.288;2023-05-25T11:08:54;98323.59;;;9.54;100.00
29467;BME280;60968;37.490;-122.288;2023-05-25T11:15:17;98321.72;;;9.61;100.00
29467;BME280;60968;37.490;-122.288;2023-05-25T11:18:20;98313.06;;;9.62;100.00
29467;BME280;60968;37.490;-122.288;2023-05-25T11:24:29;98326.78;;;9.67;100.00
29467;BME280;60968;37.490;-122.288;2023-05-25T11:27:31;98315.50;;;9.68;100.00
29467;BME280;60968;37.490;-122.288;2023-05-25T11:30:32;98308.50;;;9.70;100.00
29467;BME280;60968;37.490;-122.288;2023-05-25T11:33:34;98312.00;;;9.71;100.00
29467;BME280;60968;37.490;-122.288;2023-05-25T11:36:35;98308.47;;;9.73;100.00
29467;BME280;60968;37.490;-122.288;2023-05-25T11:39:36;98308.50;;;9.72;100.00
29467;BME280;60968;37.490;-122.288;2023-05-25T11:42:37;98308.44;;;9.75;100.00
29467;BME280;60968;37.490;-122.288;2023-05-25T11:45:39;98315.31;;;9.77;100.00
29467;BME280;60968;37.490;-122.288;2023-05-25T11:48:44;98317.91;;;9.77;100.00
29467;BME280;60968;37.490;-122.288;2023-05-25T11:51:45;98316.06;;;9.83;100.00
29467;BME280;60968;37.490;-122.288;2023-05-25T11:54:46;98307.38;;;9.84;100.00
29467;BME280;60968;37.490;-122.288;2023-05-25T11:57:54;98307.28;;;9.87;100.00
29467;BME280;60968;37.490;-122.288;2023-05-25T12:01:17;98303.72;;;9.91;100.00
29467;BME280;60968;37.490;-122.288;2023-05-25T12:04:19;98302.84;;;9.92;100.00
29467;BME280;60968;37.490;-122.288;2023-05-25T12:07:20;98302.88;;;9.90;100.00
29467;BME280;60968;37.490;-122.288;2023-05-25T12:10:21;98301.16;;;9.89;100.00
29467;BME280;60968;37.490;-122.288;2023-05-25T12:13:22;98304.72;;;9.85;100.00
29467;BME280;60968;37.490;-122.288;2023-05-25T12:16:24;98297.72;;;9.89;100.00
29467;BME280;60968;37.490;-122.288;2023-05-25T12:19:25;98297.72;;;9.89;100.00
29467;BME280;60968;37.490;-122.288;2023-05-25T12:22:26;98297.63;;;9.92;100.00
29467;BME280;60968;37.490;-122.288;2023-05-25T12:25:27;98300.09;;;9.98;100.00
29467;BME280;60968;37.490;-122.288;2023-05-25T12:28:28;98293.13;;;10.00;100.00
29467;BME280;60968;37.490;-122.288;2023-05-25T12:31:30;98289.63;;;10.00;100.00
29467;BME280;60968;37.490;-122.288;2023-05-25T12:34:32;98290.59;;;9.95;100.00
29467;BME280;60968;37.490;-122.288;2023-05-25T12:37:33;98293.13;;;10.00;100.00
29467;BME280;60968;37.490;-122.288;2023-05-25T12:40:34;98298.25;;;10.03;100.00
29467;BME280;60968;37.490;-122.288;2023-05-25T12:43:37;98293.03;;;10.03;100.00
29467;BME280;60968;37.490;-122.288;2023-05-25T12:46:38;98297.41;;;10.03;100.00
29467;BME280;60968;37.490;-122.288;2023-05-25T12:49:41;98296.69;;;9.96;100.00
29467;BME280;60968;37.490;-122.288;2023-05-25T12:52:43;98299.38;;;9.93;100.00
29467;BME280;60968;37.490;-122.288;2023-05-25T12:55:44;98301.00;;;9.95;100.00
29467;BME280;60968;37.490;-122.288;2023-05-25T12:58:45;98306.06;;;10.03;100.00
29467;BME280;60968;37.490;-122.288;2023-05-25T13:01:46;98307.78;;;10.04;100.00
29467;BME280;60968;37.490;-122.288;2023-05-25T13:04:47;98302.63;;;10.01;100.00
29467;BME280;60968;37.490;-122.288;2023-05-25T13:07:48;98315.59;;;10.04;100.00
29467;BME280;60968;37.490;-122.288;2023-05-25T13:10:49;98308.59;;;10.06;100.00
29467;BME280;60968;37.490;-122.288;2023-05-25T13:13:50;98309.47;;;10.05;100.00
29467;BME280;60968;37.490;-122.288;2023-05-25T13:16:52;98324.09;;;10.11;100.00
29467;BME280;60968;37.490;-122.288;2023-05-25T13:19:53;98318.91;;;10.09;100.00
29467;BME280;60968;37.490;-122.288;2023-05-25T13:22:54;98318.88;;;10.11;100.00
29467;BME280;60968;37.490;-122.288;2023-05-25T13:25:55;98320.72;;;10.07;100.00
29467;BME280;60968;37.490;-122.288;2023-05-25T13:28:55;98315.44;;;10.10;100.00
29467;BME280;60968;37.490;-122.288;2023-05-25T13:31:56;98318.00;;;10.12;100.00
29467;BME280;60968;37.490;-122.288;2023-05-25T13:34:58;98322.41;;;10.10;100.00
29467;BME280;60968;37.490;-122.288;2023-05-25T13:37:59;98321.50;;;10.09;100.00
29467;BME280;60968;37.490;-122.288;2023-05-25T13:41:00;98321.31;;;10.19;100.00
29467;BME280;60968;37.490;-122.288;2023-05-25T13:44:01;98321.06;;;10.28;100.00
29467;BME280;60968;37.490;-122.288;2023-05-25T13:47:02;98324.38;;;10.36;100.00
29467;BME280;60968;37.490;-122.288;2023-05-25T13:50:03;98333.06;;;10.37;100.00
29467;BME280;60968;37.490;-122.288;2023-05-25T13:53:03;98345.97;;;10.41;100.00
29467;BME280;60968;37.490;-122.288;2023-05-25T13:56:04;98351.88;;;10.50;100.00
29467;BME280;60968;37.490;-122.288;2023-05-25T13:59:05;98354.31;;;10.56;100.00
29467;BME280;60968;37.490;-122.288;2023-05-25T14:02:06;98365.50;;;10.59;100.00
29467;BME280;60968;37.490;-122.288;2023-05-25T14:05:07;98362.91;;;10.59;100.00
29467;BME280;60968;37.490;-122.288;2023-05-25T14:08:08;98374.19;;;10.60;100.00
29467;BME280;60968;37.490;-122.288;2023-05-25T14:11:09;98374.03;;;10.66;100.00
29467;BME280;60968;37.490;-122.288;2023-05-25T14:14:10;98378.16;;;10.75;100.00
29467;BME280;60968;37.490;-122.288;2023-05-25T14:17:10;98382.41;;;10.79;100.00
29467;BME280;60968;37.490;-122.288;2023-05-25T14:20:11;98378.84;;;10.83;100.00
29467;BME280;60968;37.490;-122.288;2023-05-25T14:23:12;98377.91;;;10.84;100.00
29467;BME280;60968;37.490;-122.288;2023-05-25T14:26:13;98377.06;;;10.84;100.00
29467;BME280;60968;37.490;-122.288;2023-05-25T14:29:14;98375.13;;;10.92;100.00
29467;BME280;60968;37.490;-122.288;2023-05-25T14:32:15;98374.88;;;11.01;100.00
29467;BME280;60968;37.490;-122.288;2023-05-25T14:35:16;98378.31;;;11.03;100.00
29467;BME280;60968;37.490;-122.288;2023-05-25T14:38:16;98364.22;;;11.10;100.00
29467;BME280;60968;37.490;-122.288;2023-05-25T14:41:17;98364.25;;;11.09;100.00
29467;BME280;60968;37.490;-122.288;2023-05-25T14:44:18;98363.41;;;11.08;100.00
29467;BME280;60968;37.490;-122.288;2023-05-25T14:47:19;98366.81;;;11.10;100.00
29467;BME280;60968;37.490;-122.288;2023-05-25T14:50:20;98350.19;;;11.14;100.00
29467;BME280;60968;37.490;-122.288;2023-05-25T14:53:21;98356.13;;;11.21;100.00
29467;BME280;60968;37.490;-122.288;2023-05-25T14:56:21;98361.19;;;11.26;100.00
29467;BME280;60968;37.490;-122.288;2023-05-25T14:59:22;98366.09;;;11.38;100.00
29467;BME280;60968;37.490;-122.288;2023-05-25T15:02:23;98365.09;;;11.42;100.00
29467;BME280;60968;37.490;-122.288;2023-05-25T15:05:24;98367.28;;;11.58;100.00
29467;BME280;60968;37.490;-122.288;2023-05-25T15:08:25;98370.78;;;11.57;100.00
29467;BME280;60968;37.490;-122.288;2023-05-25T15:11:26;98374.16;;;11.60;100.00
29467;BME280;60968;37.490;-122.288;2023-05-25T15:14:26;98370.09;;;11.81;100.00
29467;BME280;60968;37.490;-122.288;2023-05-25T15:17:27;98370.88;;;12.13;100.00
29467;BME280;60968;37.490;-122.288;2023-05-25T15:20:28;98377.72;;;12.17;99.71
29467;BME280;60968;37.490;-122.288;2023-05-25T15:23:29;98394.13;;;12.23;99.44
29467;BME280;60968;37.490;-122.288;2023-05-25T15:26:30;98397.44;;;12.28;97.23
29467;BME280;60968;37.490;-122.288;2023-05-25T15:29:31;98396.88;;;12.46;98.77
29467;BME280;60968;37.490;-122.288;2023-05-25T15:32:32;98396.81;;;12.48;96.84
29467;BME280;60968;37.490;-122.288;2023-05-25T15:35:32;98402.41;;;12.35;97.58
29467;BME280;60968;37.490;-122.288;2023-05-25T15:38:33;98398.28;;;12.57;96.09